sensor_id;sensor_type;location;lat;lon;timestamp;pressure;altitude;pressure_sealevel;temperature;humidity
79138;BME280;68544;45.566;10.238;2024-01-25T00:00:27;100574.28;;;6.52;77.84
79138;BME280;68544;45.566;10.238;2024-01-25T00:02:52;100571.16;;;6.84;76.62
79138;BME280;68544;45.566;10.238;2024-01-25T00:05:17;100560.56;;;6.55;76.19
79138;BME280;68544;45.566;10.238;2024-01-25T00:07:49;100572.84;;;6.58;75.85
79138;BME280;68544;45.566;10.238;2024-01-25T00:10:16;100576.84;;;6.44;76.92
79138;BME280;68544;45.566;10.238;2024-01-25T00:12:42;100572.75;;;6.50;77.91
79138;BME280;68544;45.566;10.238;2024-01-25T00:15:08;100574.59;;;6.49;77.76
79138;BME280;68544;45.566;10.238;2024-01-25T00:17:33;100578.50;;;6.55;77.09
79138;BME280;68544;45.566;10.238;2024-01-25T00:19:59;100569.53;;;6.36;78.45
79138;BME280;68544;45.566;10.238;2024-01-25T00:22:24;100588.53;;;6.06;80.41
79138;BME280;68544;45.566;10.238;2024-01-25T00:24:49;100583.31;;;5.95;81.58
79138;BME280;68544;45.566;10.238;2024-01-25T00:27:15;100576.25;;;6.04;81.76
79138;BME280;68544;45.566;10.238;2024-01-25T00:29:40;100576.09;;;6.15;81.42
79138;BME280;68544;45.566;10.238;2024-01-25T00:32:06;100587.97;;;5.93;82.66
79138;BME280;68544;45.566;10.238;2024-01-25T00:34:31;100579.25;;;6.01;82.93
79138;BME280;68544;45.566;10.238;2024-01-25T00:36:57;100584.06;;;5.88;84.03
79138;BME280;68544;45.566;10.238;2024-01-25T00:39:22;100586.22;;;6.30;81.67
79138;BME280;68544;45.566;10.238;2024-01-25T00:41:50;100579.63;;;6.52;78.44
79138;BME280;68544;45.566;10.238;2024-01-25T00:44:16;100581.13;;;6.27;79.83
79138;BME280;68544;45.566;10.238;2024-01-25T00:46:42;100577.00;;;5.96;80.58
79138;BME280;68544;45.566;10.238;2024-01-25T00:49:08;100575.44;;;6.40;78.77
79138;BME280;68544;45.566;10.238;2024-01-25T00:51:33;100573.34;;;5.97;80.17
79138;BME280;68544;45.566;10.238;2024-01-25T00:53:59;100576.13;;;6.05;80.16
79138;BME280;68544;45.566;10.238;2024-01-25T00:56:24;100579.19;;;6.20;79.59
79138;BME280;68544;45.566;10.238;2024-01-25T00:58:50;100564.44;;;5.87;80.98
79138;BME280;68544;45.566;10.238;2024-01-25T01:01:18;100571.22;;;5.63;83.50
79138;BME280;68544;45.566;10.238;2024-01-25T01:03:45;100573.34;;;5.59;84.20
79138;BME280;68544;45.566;10.238;2024-01-25T01:06:10;100579.53;;;5.50;84.17
79138;BME280;68544;45.566;10.238;2024-01-25T01:08:36;100577.81;;;5.49;84.27
79138;BME280;68544;45.566;10.238;2024-01-25T01:11:02;100583.19;;;5.68;82.74
79138;BME280;68544;45.566;10.238;2024-01-25T01:13:27;100575.84;;;5.70;81.45
79138;BME280;68544;45.566;10.238;2024-01-25T01:15:52;100574.44;;;5.66;81.84
79138;BME280;68544;45.566;10.238;2024-01-25T01:18:18;100584.31;;;5.75;82.56
79138;BME280;68544;45.566;10.238;2024-01-25T01:20:43;100590.47;;;6.23;79.68
79138;BME280;68544;45.566;10.238;2024-01-25T01:23:08;100593.09;;;5.87;79.37
79138;BME280;68544;45.566;10.238;2024-01-25T01:25:34;100588.66;;;6.14;78.68
79138;BME280;68544;45.566;10.238;2024-01-25T01:27:59;100587.97;;;5.93;79.41
79138;BME280;68544;45.566;10.238;2024-01-25T01:30:24;100588.53;;;5.68;80.62
79138;BME280;68544;45.566;10.238;2024-01-25T01:32:50;100586.16;;;5.75;80.38
79138;BME280;68544;45.566;10.238;2024-01-25T01:35:15;100587.16;;;5.74;80.83
79138;BME280;68544;45.566;10.238;2024-01-25T01:37:40;100590.66;;;5.93;80.01
79138;BME280;68544;45.566;10.238;2024-01-25T01:40:06;100588.28;;;5.71;80.05
79138;BME280;68544;45.566;10.238;2024-01-25T01:42:33;100588.41;;;5.60;81.75
79138;BME280;68544;45.566;10.238;2024-01-25T01:44:58;100581.50;;;5.48;82.55
79138;BME280;68544;45.566;10.238;2024-01-25T01:47:24;100575.88;;;5.32;84.18
79138;BME280;68544;45.566;10.238;2024-01-25T01:49:49;100580.09;;;5.25;84.34
79138;BME280;68544;45.566;10.238;2024-01-25T01:52:15;100578.69;;;5.21;84.63
79138;BME280;68544;45.566;10.238;2024-01-25T01:54:40;100589.94;;;5.72;82.34
79138;BME280;68544;45.566;10.238;2024-01-25T01:57:07;100570.09;;;5.46;82.06
79138;BME280;68544;45.566;10.238;2024-01-25T01:59:33;100556.44;;;5.30;82.92
79138;BME280;68544;45.566;10.238;2024-01-25T02:01:58;100565.00;;;5.43;81.63
79138;BME280;68544;45.566;10.238;2024-01-25T02:04:24;100570.25;;;5.44;81.47
79138;BME280;68544;45.566;10.238;2024-01-25T02:06:49;100574.19;;;5.50;80.96
79138;BME280;68544;45.566;10.238;2024-01-25T02:09:14;100575.84;;;5.80;78.98
79138;BME280;68544;45.566;10.238;2024-01-25T02:11:40;100566.69;;;5.25;81.95
79138;BME280;68544;45.566;10.238;2024-01-25T02:14:05;100569.63;;;5.03;83.99
79138;BME280;68544;45.566;10.238;2024-01-25T02:16:35;100564.00;;;5.06;84.78
79138;BME280;68544;45.566;10.238;2024-01-25T02:19:00;100570.31;;;4.86;85.81
79138;BME280;68544;45.566;10.238;2024-01-25T02:21:26;100561.19;;;4.98;85.63
79138;BME280;68544;45.566;10.238;2024-01-25T02:23:51;100560.94;;;5.39;83.43
79138;BME280;68544;45.566;10.238;2024-01-25T02:26:17;100557.38;;;5.57;81.47
79138;BME280;68544;45.566;10.238;2024-01-25T02:28:42;100556.72;;;5.84;79.41
79138;BME280;68544;45.566;10.238;2024-01-25T02:31:07;100555.44;;;5.88;78.82
79138;BME280;68544;45.566;10.238;2024-01-25T02:33:33;100542.88;;;5.70;79.55
79138;BME280;68544;45.566;10.238;2024-01-25T02:35:58;100539.50;;;5.48;80.90
79138;BME280;68544;45.566;10.238;2024-01-25T02:38:23;100536.66;;;5.59;80.51
79138;BME280;68544;45.566;10.238;2024-01-25T02:40:49;100539.19;;;5.71;79.05
79138;BME280;68544;45.566;10.238;2024-01-25T02:43:14;100537.94;;;5.65;80.38
79138;BME280;68544;45.566;10.238;2024-01-25T02:45:39;100531.34;;;5.50;80.27
79138;BME280;68544;45.566;10.238;2024-01-25T02:48:05;100529.94;;;5.17;83.17
79138;BME280;68544;45.566;10.238;2024-01-25T02:50:30;100521.19;;;5.06;85.09
79138;BME280;68544;45.566;10.238;2024-01-25T02:52:56;100508.22;;;4.92;85.64
79138;BME280;68544;45.566;10.238;2024-01-25T02:55:22;100536.81;;;5.20;85.18
79138;BME280;68544;45.566;10.238;2024-01-25T02:57:47;100528.50;;;4.94;86.69
79138;BME280;68544;45.566;10.238;2024-01-25T03:00:12;100529.09;;;5.17;85.39
79138;BME280;68544;45.566;10.238;2024-01-25T03:02:38;100519.22;;;5.17;85.26
79138;BME280;68544;45.566;10.238;2024-01-25T03:05:04;100500.75;;;5.52;83.14
79138;BME280;68544;45.566;10.238;2024-01-25T03:07:29;100516.41;;;5.57;80.26
79138;BME280;68544;45.566;10.238;2024-01-25T03:09:54;100509.75;;;5.61;79.68
79138;BME280;68544;45.566;10.238;2024-01-25T03:12:20;100515.25;;;5.59;79.61
79138;BME280;68544;45.566;10.238;2024-01-25T03:14:45;100495.47;;;5.70;78.46
79138;BME280;68544;45.566;10.238;2024-01-25T03:17:10;100501.72;;;5.13;80.44
79138;BME280;68544;45.566;10.238;2024-01-25T03:19:37;100512.19;;;5.16;81.85
79138;BME280;68544;45.566;10.238;2024-01-25T03:22:03;100511.88;;;4.91;83.42
79138;BME280;68544;45.566;10.238;2024-01-25T03:24:28;100507.06;;;4.75;84.54
79138;BME280;68544;45.566;10.238;2024-01-25T03:26:54;100525.81;;;4.94;84.65
79138;BME280;68544;45.566;10.238;2024-01-25T03:29:19;100522.97;;;4.76;85.54
79138;BME280;68544;45.566;10.238;2024-01-25T03:31:45;100519.47;;;5.43;82.17
79138;BME280;68544;45.566;10.238;2024-01-25T03:34:10;100525.41;;;5.56;80.36
79138;BME280;68544;45.566;10.238;2024-01-25T03:36:35;100524.00;;;5.52;80.21
79138;BME280;68544;45.566;10.238;2024-01-25T03:39:01;100508.66;;;5.35;80.17
79138;BME280;68544;45.566;10.238;2024-01-25T03:41:28;100522.28;;;5.80;78.38
79138;BME280;68544;45.566;10.238;2024-01-25T03:43:54;100463.16;;;5.16;78.02
79138;BME280;68544;45.566;10.238;2024-01-25T03:46:19;100531.19;;;5.13;82.22
79138;BME280;68544;45.566;10.238;2024-01-25T03:48:45;100529.06;;;5.45;80.64
79138;BME280;68544;45.566;10.238;2024-01-25T03:51:10;100532.19;;;5.50;80.16
79138;BME280;68544;45.566;10.238;2024-01-25T03:53:35;100524.28;;;5.49;79.62
79138;BME280;68544;45.566;10.238;2024-01-25T03:56:01;100506.81;;;5.16;80.99
79138;BME280;68544;45.566;10.238;2024-01-25T03:58:26;100520.88;;;4.90;84.43
79138;BME280;68544;45.566;10.238;2024-01-25T04:00:52;100516.25;;;4.92;84.72
79138;BME280;68544;45.566;10.238;2024-01-25T04:03:17;100529.22;;;5.25;83.14
79138;BME280;68544;45.566;10.238;2024-01-25T04:05:43;100511.31;;;5.16;81.60
79138;BME280;68544;45.566;10.238;2024-01-25T04:08:08;100512.44;;;5.13;82.13
79138;BME280;68544;45.566;10.238;2024-01-25T04:10:34;100519.19;;;4.89;83.64
79138;BME280;68544;45.566;10.238;2024-01-25T04:12:59;100522.69;;;4.79;85.87
79138;BME280;68544;45.566;10.238;2024-01-25T04:15:30;100529.78;;;5.19;84.32
79138;BME280;68544;45.566;10.238;2024-01-25T04:17:55;100512.19;;;5.07;83.56
79138;BME280;68544;45.566;10.238;2024-01-25T04:20:21;100513.59;;;5.11;84.51
79138;BME280;68544;45.566;10.238;2024-01-25T04:22:46;100528.25;;;5.35;81.85
79138;BME280;68544;45.566;10.238;2024-01-25T04:25:12;100529.09;;;5.55;80.24
79138;BME280;68544;45.566;10.238;2024-01-25T04:27:38;100524.00;;;5.52;82.22
79138;BME280;68544;45.566;10.238;2024-01-25T04:30:04;100525.72;;;5.34;83.09
79138;BME280;68544;45.566;10.238;2024-01-25T04:32:30;100515.00;;;5.34;83.17
79138;BME280;68544;45.566;10.238;2024-01-25T04:34:55;100492.72;;;5.14;85.17
79138;BME280;68544;45.566;10.238;2024-01-25T04:37:20;100518.38;;;4.98;86.43
79138;BME280;68544;45.566;10.238;2024-01-25T04:39:46;100531.16;;;4.75;88.51
79138;BME280;68544;45.566;10.238;2024-01-25T04:42:11;100533.75;;;4.56;90.25
79138;BME280;68544;45.566;10.238;2024-01-25T04:44:36;100527.97;;;4.51;90.92
79138;BME280;68544;45.566;10.238;2024-01-25T04:47:02;100532.53;;;4.69;89.42
79138;BME280;68544;45.566;10.238;2024-01-25T04:49:27;100529.53;;;4.53;90.28
79138;BME280;68544;45.566;10.238;2024-01-25T04:51:52;100534.03;;;4.53;91.18
79138;BME280;68544;45.566;10.238;2024-01-25T04:54:17;100548.34;;;4.42;91.99
79138;BME280;68544;45.566;10.238;2024-01-25T04:56:43;100541.09;;;4.63;91.52
79138;BME280;68544;45.566;10.238;2024-01-25T04:59:08;100530.94;;;4.67;90.08
79138;BME280;68544;45.566;10.238;2024-01-25T05:01:34;100534.06;;;4.62;89.70
79138;BME280;68544;45.566;10.238;2024-01-25T05:03:59;100530.06;;;4.47;90.69
79138;BME280;68544;45.566;10.238;2024-01-25T05:06:25;100538.50;;;4.43;91.32
79138;BME280;68544;45.566;10.238;2024-01-25T05:08:51;100529.59;;;4.33;91.46
79138;BME280;68544;45.566;10.238;2024-01-25T05:11:16;100534.97;;;4.42;90.41
79138;BME280;68544;45.566;10.238;2024-01-25T05:13:41;100545.56;;;4.23;91.03
79138;BME280;68544;45.566;10.238;2024-01-25T05:16:07;100541.31;;;4.41;90.00
79138;BME280;68544;45.566;10.238;2024-01-25T05:18:32;100537.00;;;4.20;90.57
79138;BME280;68544;45.566;10.238;2024-01-25T05:20:57;100555.03;;;4.27;90.88
79138;BME280;68544;45.566;10.238;2024-01-25T05:23:23;100547.72;;;4.29;89.64
79138;BME280;68544;45.566;10.238;2024-01-25T05:25:49;100552.25;;;4.38;89.31
79138;BME280;68544;45.566;10.238;2024-01-25T05:28:14;100546.03;;;4.28;90.10
79138;BME280;68544;45.566;10.238;2024-01-25T05:30:40;100545.41;;;4.15;91.69
79138;BME280;68544;45.566;10.238;2024-01-25T05:33:05;100550.53;;;4.67;88.25
79138;BME280;68544;45.566;10.238;2024-01-25T05:35:30;100553.97;;;4.39;89.23
79138;BME280;68544;45.566;10.238;2024-01-25T05:37:56;100540.41;;;4.01;91.80
79138;BME280;68544;45.566;10.238;2024-01-25T05:40:22;100551.09;;;4.01;93.19
79138;BME280;68544;45.566;10.238;2024-01-25T05:42:47;100553.50;;;4.04;93.15
79138;BME280;68544;45.566;10.238;2024-01-25T05:45:13;100547.72;;;4.29;90.91
79138;BME280;68544;45.566;10.238;2024-01-25T05:47:38;100550.91;;;4.53;89.84
79138;BME280;68544;45.566;10.238;2024-01-25T05:50:04;100552.31;;;4.48;88.34
79138;BME280;68544;45.566;10.238;2024-01-25T05:52:30;100560.97;;;4.31;88.94
79138;BME280;68544;45.566;10.238;2024-01-25T05:54:55;100554.47;;;4.33;89.70
79138;BME280;68544;45.566;10.238;2024-01-25T05:57:21;100557.47;;;4.40;89.64
79138;BME280;68544;45.566;10.238;2024-01-25T05:59:46;100558.47;;;4.39;90.27
79138;BME280;68544;45.566;10.238;2024-01-25T06:02:13;100567.22;;;4.50;89.80
79138;BME280;68544;45.566;10.238;2024-01-25T06:04:39;100574.59;;;4.67;88.46
79138;BME280;68544;45.566;10.238;2024-01-25T06:07:04;100550.03;;;4.93;86.05
79138;BME280;68544;45.566;10.238;2024-01-25T06:09:29;100543.81;;;4.73;85.57
79138;BME280;68544;45.566;10.238;2024-01-25T06:11:54;100560.44;;;4.86;84.87
79138;BME280;68544;45.566;10.238;2024-01-25T06:14:20;100551.53;;;4.66;85.19
79138;BME280;68544;45.566;10.238;2024-01-25T06:16:45;100569.84;;;4.71;85.39
79138;BME280;68544;45.566;10.238;2024-01-25T06:19:11;100561.53;;;4.74;85.65
79138;BME280;68544;45.566;10.238;2024-01-25T06:21:36;100566.78;;;4.95;83.93
79138;BME280;68544;45.566;10.238;2024-01-25T06:24:03;100551.53;;;4.66;83.11
79138;BME280;68544;45.566;10.238;2024-01-25T06:26:29;100573.25;;;4.43;86.45
79138;BME280;68544;45.566;10.238;2024-01-25T06:28:54;100567.34;;;4.39;87.13
79138;BME280;68544;45.566;10.238;2024-01-25T06:31:19;100564.41;;;4.92;83.26
79138;BME280;68544;45.566;10.238;2024-01-25T06:33:45;100573.38;;;4.81;83.30
79138;BME280;68544;45.566;10.238;2024-01-25T06:36:12;100564.78;;;4.77;85.11
79138;BME280;68544;45.566;10.238;2024-01-25T06:38:40;100573.28;;;5.11;82.70
79138;BME280;68544;45.566;10.238;2024-01-25T06:41:05;100583.25;;;4.90;83.26
79138;BME280;68544;45.566;10.238;2024-01-25T06:43:31;100566.13;;;5.12;82.58
79138;BME280;68544;45.566;10.238;2024-01-25T06:45:56;100578.22;;;5.06;84.94
79138;BME280;68544;45.566;10.238;2024-01-25T06:48:21;100583.34;;;4.69;86.24
79138;BME280;68544;45.566;10.238;2024-01-25T06:50:47;100572.69;;;4.89;86.55
79138;BME280;68544;45.566;10.238;2024-01-25T06:53:12;100583.69;;;4.86;87.04
79138;BME280;68544;45.566;10.238;2024-01-25T06:55:37;100605.84;;;4.67;88.71
79138;BME280;68544;45.566;10.238;2024-01-25T06:58:03;100596.03;;;4.77;88.58
79138;BME280;68544;45.566;10.238;2024-01-25T07:00:28;100587.00;;;4.68;89.80
79138;BME280;68544;45.566;10.238;2024-01-25T07:02:53;100600.09;;;4.71;90.39
79138;BME280;68544;45.566;10.238;2024-01-25T07:05:19;100596.16;;;4.75;90.99
79138;BME280;68544;45.566;10.238;2024-01-25T07:07:44;100591.41;;;4.89;91.14
79138;BME280;68544;45.566;10.238;2024-01-25T07:10:10;100593.13;;;4.90;90.57
79138;BME280;68544;45.566;10.238;2024-01-25T07:12:35;100585.91;;;4.80;90.83
79138;BME280;68544;45.566;10.238;2024-01-25T07:15:01;100598.03;;;4.85;91.75
79138;BME280;68544;45.566;10.238;2024-01-25T07:17:26;100588.81;;;5.27;89.00
79138;BME280;68544;45.566;10.238;2024-01-25T07:19:51;100594.69;;;5.11;88.10
79138;BME280;68544;45.566;10.238;2024-01-25T07:22:17;100581.75;;;5.26;86.99
79138;BME280;68544;45.566;10.238;2024-01-25T07:24:43;100599.25;;;5.49;85.07
79138;BME280;68544;45.566;10.238;2024-01-25T07:27:09;100588.13;;;5.44;83.65
79138;BME280;68544;45.566;10.238;2024-01-25T07:29:36;100605.06;;;5.44;83.52
79138;BME280;68544;45.566;10.238;2024-01-25T07:32:02;100583.91;;;5.32;82.96
79138;BME280;68544;45.566;10.238;2024-01-25T07:34:27;100588.13;;;5.34;83.59
79138;BME280;68544;45.566;10.238;2024-01-25T07:36:53;100603.19;;;5.45;83.17
79138;BME280;68544;45.566;10.238;2024-01-25T07:39:18;100601.66;;;5.33;85.33
79138;BME280;68544;45.566;10.238;2024-01-25T07:41:43;100603.78;;;5.77;82.98
79138;BME280;68544;45.566;10.238;2024-01-25T07:44:09;100604.63;;;5.78;81.30
79138;BME280;68544;45.566;10.238;2024-01-25T07:46:34;100611.69;;;5.98;80.20
79138;BME280;68544;45.566;10.238;2024-01-25T07:48:59;100612.38;;;5.71;80.86
79138;BME280;68544;45.566;10.238;2024-01-25T07:51:25;100591.94;;;5.60;82.32
79138;BME280;68544;45.566;10.238;2024-01-25T07:53:53;100616.22;;;5.97;80.18
79138;BME280;68544;45.566;10.238;2024-01-25T07:56:19;100590.81;;;5.63;81.70
79138;BME280;68544;45.566;10.238;2024-01-25T07:58:44;100603.50;;;5.80;80.76
79138;BME280;68544;45.566;10.238;2024-01-25T08:01:10;100606.47;;;5.96;81.59
79138;BME280;68544;45.566;10.238;2024-01-25T08:03:35;100597.06;;;6.38;78.75
79138;BME280;68544;45.566;10.238;2024-01-25T08:06:02;100598.22;;;6.63;76.46
79138;BME280;68544;45.566;10.238;2024-01-25T08:08:28;100580.34;;;6.54;76.32
79138;BME280;68544;45.566;10.238;2024-01-25T08:10:53;100601.97;;;7.07;74.80
79138;BME280;68544;45.566;10.238;2024-01-25T08:13:19;100619.28;;;6.95;75.31
79138;BME280;68544;45.566;10.238;2024-01-25T08:15:44;100605.94;;;7.03;75.51
79138;BME280;68544;45.566;10.238;2024-01-25T08:18:10;100610.69;;;7.36;75.00
79138;BME280;68544;45.566;10.238;2024-01-25T08:20:37;100608.72;;;7.73;72.82
79138;BME280;68544;45.566;10.238;2024-01-25T08:23:02;100609.56;;;8.17;70.51
79138;BME280;68544;45.566;10.238;2024-01-25T08:25:28;100611.97;;;8.20;70.00
79138;BME280;68544;45.566;10.238;2024-01-25T08:27:53;100615.09;;;8.59;68.48
79138;BME280;68544;45.566;10.238;2024-01-25T08:30:18;100604.88;;;8.37;68.84
79138;BME280;68544;45.566;10.238;2024-01-25T08:32:44;100616.78;;;8.60;69.11
79138;BME280;68544;45.566;10.238;2024-01-25T08:35:09;100624.34;;;8.64;68.59
79138;BME280;68544;45.566;10.238;2024-01-25T08:37:35;100618.22;;;8.80;67.66
79138;BME280;68544;45.566;10.238;2024-01-25T08:40:03;100625.88;;;8.67;67.71
79138;BME280;68544;45.566;10.238;2024-01-25T08:42:31;100618.53;;;8.77;67.55
79138;BME280;68544;45.566;10.238;2024-01-25T08:44:56;100618.22;;;8.80;67.62
79138;BME280;68544;45.566;10.238;2024-01-25T08:47:22;100616.41;;;9.30;65.49
79138;BME280;68544;45.566;10.238;2024-01-25T08:49:47;100624.38;;;9.48;64.75
79138;BME280;68544;45.566;10.238;2024-01-25T08:52:12;100616.97;;;9.58;64.43
79138;BME280;68544;45.566;10.238;2024-01-25T08:54:38;100626.72;;;9.43;65.68
79138;BME280;68544;45.566;10.238;2024-01-25T08:57:04;100607.34;;;9.39;66.12
79138;BME280;68544;45.566;10.238;2024-01-25T08:59:31;100608.75;;;9.92;64.13
79138;BME280;68544;45.566;10.238;2024-01-25T09:01:58;100619.72;;;9.90;63.28
79138;BME280;68544;45.566;10.238;2024-01-25T09:04:23;100617.47;;;9.70;64.30
79138;BME280;68544;45.566;10.238;2024-01-25T09:06:49;100628.31;;;10.02;63.61
79138;BME280;68544;45.566;10.238;2024-01-25T09:09:14;100616.19;;;10.14;62.46
79138;BME280;68544;45.566;10.238;2024-01-25T09:11:39;100636.75;;;10.39;61.54
79138;BME280;68544;45.566;10.238;2024-01-25T09:14:05;100629.31;;;10.41;59.91
79138;BME280;68544;45.566;10.238;2024-01-25T09:16:30;100620.84;;;10.68;59.57
79138;BME280;68544;45.566;10.238;2024-01-25T09:18:56;100646.84;;;10.61;59.68
79138;BME280;68544;45.566;10.238;2024-01-25T09:21:21;100634.84;;;11.10;57.94
79138;BME280;68544;45.566;10.238;2024-01-25T09:23:46;100653.59;;;11.20;57.73
79138;BME280;68544;45.566;10.238;2024-01-25T09:26:12;100641.16;;;11.42;57.09
79138;BME280;68544;45.566;10.238;2024-01-25T09:28:37;100649.28;;;11.42;58.29
79138;BME280;68544;45.566;10.238;2024-01-25T09:31:02;100650.19;;;11.57;57.46
79138;BME280;68544;45.566;10.238;2024-01-25T09:33:28;100652.66;;;11.74;56.40
79138;BME280;68544;45.566;10.238;2024-01-25T09:35:55;100653.44;;;11.83;55.78
79138;BME280;68544;45.566;10.238;2024-01-25T09:38:21;100644.53;;;11.97;54.58
79138;BME280;68544;45.566;10.238;2024-01-25T09:40:47;100646.09;;;12.14;54.03
79138;BME280;68544;45.566;10.238;2024-01-25T09:43:13;100643.19;;;12.38;53.70
79138;BME280;68544;45.566;10.238;2024-01-25T09:45:43;100648.97;;;12.35;52.96
79138;BME280;68544;45.566;10.238;2024-01-25T09:48:09;100651.09;;;12.25;52.90
79138;BME280;68544;45.566;10.238;2024-01-25T09:50:34;100648.13;;;12.49;51.59
79138;BME280;68544;45.566;10.238;2024-01-25T09:53:00;100648.28;;;12.85;50.27
79138;BME280;68544;45.566;10.238;2024-01-25T09:55:26;100652.91;;;13.14;48.85
79138;BME280;68544;45.566;10.238;2024-01-25T09:57:55;100656.06;;;13.03;49.17
79138;BME280;68544;45.566;10.238;2024-01-25T10:00:24;100665.03;;;13.47;48.62
79138;BME280;68544;45.566;10.238;2024-01-25T10:02:50;100657.94;;;13.67;47.97
79138;BME280;68544;45.566;10.238;2024-01-25T10:05:16;100657.72;;;13.83;47.94
79138;BME280;68544;45.566;10.238;2024-01-25T10:07:43;100651.03;;;14.00;46.49
79138;BME280;68544;45.566;10.238;2024-01-25T10:10:10;100667.00;;;14.52;45.54
79138;BME280;68544;45.566;10.238;2024-01-25T10:12:40;100665.69;;;15.03;44.42
79138;BME280;68544;45.566;10.238;2024-01-25T10:15:07;100662.03;;;15.65;42.61
79138;BME280;68544;45.566;10.238;2024-01-25T10:17:32;100660.13;;;16.52;40.33
79138;BME280;68544;45.566;10.238;2024-01-25T10:19:58;100658.25;;;19.96;33.70
79138;BME280;68544;45.566;10.238;2024-01-25T10:22:24;100661.94;;;23.04;27.86
79138;BME280;68544;45.566;10.238;2024-01-25T10:24:49;100655.72;;;25.07;23.95
79138;BME280;68544;45.566;10.238;2024-01-25T10:27:19;100656.25;;;26.63;22.02
79138;BME280;68544;45.566;10.238;2024-01-25T10:29:44;100655.81;;;27.80;20.59
79138;BME280;68544;45.566;10.238;2024-01-25T10:32:10;100664.06;;;27.90;20.25
79138;BME280;68544;45.566;10.238;2024-01-25T10:34:36;100654.78;;;28.59;18.99
79138;BME280;68544;45.566;10.238;2024-01-25T10:37:05;100646.06;;;29.04;18.44
79138;BME280;68544;45.566;10.238;2024-01-25T10:39:32;100653.75;;;28.83;18.62
79138;BME280;68544;45.566;10.238;2024-01-25T10:41:58;100643.81;;;25.53;22.05
79138;BME280;68544;45.566;10.238;2024-01-25T10:44:24;100663.09;;;22.42;25.92
79138;BME280;68544;45.566;10.238;2024-01-25T10:46:49;100654.91;;;21.11;28.26
79138;BME280;68544;45.566;10.238;2024-01-25T10:49:16;100655.97;;;20.22;30.22
79138;BME280;68544;45.566;10.238;2024-01-25T10:51:43;100659.38;;;19.88;31.10
79138;BME280;68544;45.566;10.238;2024-01-25T10:54:10;100670.72;;;19.62;32.05
79138;BME280;68544;45.566;10.238;2024-01-25T10:56:36;100661.34;;;20.29;30.56
79138;BME280;68544;45.566;10.238;2024-01-25T10:59:02;100657.88;;;23.28;26.86
79138;BME280;68544;45.566;10.238;2024-01-25T11:01:28;100657.09;;;27.19;21.60
79138;BME280;68544;45.566;10.238;2024-01-25T11:03:54;100660.22;;;29.84;18.46
79138;BME280;68544;45.566;10.238;2024-01-25T11:06:21;100662.00;;;29.75;18.30
79138;BME280;68544;45.566;10.238;2024-01-25T11:08:47;100659.53;;;28.58;19.04
79138;BME280;68544;45.566;10.238;2024-01-25T11:11:14;100666.50;;;24.45;24.71
79138;BME280;68544;45.566;10.238;2024-01-25T11:13:41;100674.97;;;21.86;28.75
79138;BME280;68544;45.566;10.238;2024-01-25T11:16:34;100670.28;;;21.00;30.30
79138;BME280;68544;45.566;10.238;2024-01-25T11:19:04;100665.25;;;20.74;31.44
79138;BME280;68544;45.566;10.238;2024-01-25T11:21:50;100670.63;;;20.81;30.75
79138;BME280;68544;45.566;10.238;2024-01-25T11:24:19;100672.13;;;20.54;32.13
79138;BME280;68544;45.566;10.238;2024-01-25T11:26:46;100659.97;;;20.50;32.16
79138;BME280;68544;45.566;10.238;2024-01-25T11:29:19;100661.63;;;20.09;32.07
79138;BME280;68544;45.566;10.238;2024-01-25T11:31:47;100666.47;;;19.78;33.03
79138;BME280;68544;45.566;10.238;2024-01-25T11:34:13;100660.13;;;19.95;33.18
79138;BME280;68544;45.566;10.238;2024-01-25T11:36:39;100661.59;;;19.80;33.12
79138;BME280;68544;45.566;10.238;2024-01-25T11:39:05;100659.97;;;20.08;33.26
79138;BME280;68544;45.566;10.238;2024-01-25T11:41:32;100657.91;;;20.04;32.98
79138;BME280;68544;45.566;10.238;2024-01-25T11:43:57;100659.97;;;20.08;32.96
79138;BME280;68544;45.566;10.238;2024-01-25T11:46:23;100656.81;;;19.75;33.36
79138;BME280;68544;45.566;10.238;2024-01-25T11:48:50;100653.63;;;19.78;33.87
79138;BME280;68544;45.566;10.238;2024-01-25T11:51:15;100668.38;;;19.95;33.76
79138;BME280;68544;45.566;10.238;2024-01-25T11:53:41;100653.06;;;20.17;33.10
79138;BME280;68544;45.566;10.238;2024-01-25T11:56:12;100649.00;;;20.08;33.97
79138;BME280;68544;45.566;10.238;2024-01-25T11:58:42;100645.25;;;20.32;33.23
79138;BME280;68544;45.566;10.238;2024-01-25T12:01:08;100635.00;;;20.28;33.51
79138;BME280;68544;45.566;10.238;2024-01-25T12:03:35;100634.09;;;20.45;33.53
79138;BME280;68544;45.566;10.238;2024-01-25T12:06:04;100643.88;;;20.65;33.01
79138;BME280;68544;45.566;10.238;2024-01-25T12:08:31;100640.78;;;20.96;32.18
79138;BME280;68544;45.566;10.238;2024-01-25T12:11:09;100648.16;;;21.53;31.57
79138;BME280;68544;45.566;10.238;2024-01-25T12:13:35;100637.16;;;21.53;29.04
79138;BME280;68544;45.566;10.238;2024-01-25T12:16:02;100644.88;;;21.05;32.33
79138;BME280;68544;45.566;10.238;2024-01-25T12:18:29;100648.28;;;21.35;32.04
79138;BME280;68544;45.566;10.238;2024-01-25T12:20:55;100638.25;;;20.60;33.33
79138;BME280;68544;45.566;10.238;2024-01-25T12:23:20;100633.16;;;20.75;33.28
79138;BME280;68544;45.566;10.238;2024-01-25T12:25:45;100646.50;;;20.60;34.06
79138;BME280;68544;45.566;10.238;2024-01-25T12:28:11;100638.22;;;19.95;34.83
79138;BME280;68544;45.566;10.238;2024-01-25T12:30:36;100649.19;;;19.95;35.15
79138;BME280;68544;45.566;10.238;2024-01-25T12:33:01;100642.53;;;19.55;36.31
79138;BME280;68544;45.566;10.238;2024-01-25T12:35:27;100639.56;;;19.75;36.08
79138;BME280;68544;45.566;10.238;2024-01-25T12:37:52;100637.94;;;19.85;35.32
79138;BME280;68544;45.566;10.238;2024-01-25T12:40:17;100640.88;;;19.84;35.76